createdAt,value
2018-05-14T00:02:14.727Z,12.80
2018-05-14T00:04:42.915Z,12.80
2018-05-14T00:07:11.091Z,12.80
2018-05-14T00:09:39.276Z,12.80
2018-05-14T00:12:08.235Z,12.80
2018-05-14T00:14:36.431Z,12.80
2018-05-14T00:17:04.579Z,12.80
2018-05-14T00:19:32.756Z,12.70
2018-05-14T00:22:01.760Z,12.80
2018-05-14T00:24:29.952Z,12.80
2018-05-14T00:26:58.102Z,12.80
2018-05-14T00:29:26.295Z,12.80
2018-05-14T00:31:55.263Z,12.80
2018-05-14T00:34:23.436Z,12.80
2018-05-14T00:36:51.594Z,12.80
2018-05-14T00:39:19.797Z,12.80
2018-05-14T00:41:48.009Z,12.70
2018-05-14T00:44:16.212Z,12.80
2018-05-14T00:46:45.115Z,12.80
2018-05-14T00:49:13.290Z,12.80
2018-05-14T00:51:41.523Z,12.70
2018-05-14T00:54:09.699Z,12.70
2018-05-14T00:56:37.859Z,12.60
2018-05-14T00:59:06.028Z,12.60
2018-05-14T01:01:34.212Z,12.50
2018-05-14T01:04:02.404Z,12.60
2018-05-14T01:06:30.782Z,12.60
2018-05-14T01:08:59.635Z,12.50
2018-05-14T01:11:28.599Z,12.60
2018-05-14T01:13:56.794Z,12.60
2018-05-14T01:16:24.944Z,12.60
2018-05-14T01:18:53.120Z,12.60
2018-05-14T01:21:22.335Z,12.60
2018-05-14T01:23:50.503Z,12.60
2018-05-14T01:26:18.668Z,12.60
2018-05-14T01:28:46.855Z,12.50
2018-05-14T01:31:15.075Z,12.60
2018-05-14T01:33:43.247Z,12.50
2018-05-14T01:36:11.406Z,12.40
2018-05-14T01:38:39.564Z,12.40
2018-05-14T01:41:07.787Z,12.50
2018-05-14T01:43:35.935Z,12.40
2018-05-14T01:46:04.153Z,12.40
2018-05-14T01:48:33.060Z,12.30
2018-05-14T01:51:01.295Z,12.30
2018-05-14T01:53:29.461Z,12.30
2018-05-14T01:55:57.631Z,12.30
2018-05-14T01:58:25.779Z,12.30
2018-05-14T02:00:54.104Z,12.30
2018-05-14T02:03:23.019Z,12.20
2018-05-14T02:05:51.210Z,12.20
2018-05-14T02:08:19.367Z,12.20
2018-05-14T02:10:47.539Z,12.20
2018-05-14T02:13:15.710Z,12.20
2018-05-14T02:15:44.647Z,12.10
2018-05-14T02:18:12.799Z,12.10
2018-05-14T02:20:40.996Z,12.10
2018-05-14T02:23:09.148Z,12.20
2018-05-14T02:25:37.344Z,12.20
2018-05-14T02:28:05.512Z,12.10
2018-05-14T02:30:33.685Z,12.00
2018-05-14T02:33:01.839Z,12.10
2018-05-14T02:35:30.031Z,12.00
2018-05-14T02:37:58.183Z,11.90
2018-05-14T02:40:26.432Z,12.00
2018-05-14T02:42:55.352Z,12.00
2018-05-14T02:45:23.530Z,12.00
2018-05-14T02:47:51.683Z,12.00
2018-05-14T02:50:19.935Z,11.90
2018-05-14T02:52:48.170Z,11.90
2018-05-14T02:55:17.050Z,11.90
2018-05-14T02:57:45.235Z,11.90
2018-05-14T03:00:13.451Z,12.00
2018-05-14T03:02:41.603Z,11.90
2018-05-14T03:05:09.796Z,12.00
2018-05-14T03:07:37.948Z,12.00
2018-05-14T03:10:06.255Z,12.00
2018-05-14T03:12:34.411Z,12.00
2018-05-14T03:15:02.595Z,11.90
2018-05-14T03:17:30.743Z,11.90
2018-05-14T03:19:58.923Z,12.00
2018-05-14T03:22:27.097Z,11.90
2018-05-14T03:24:55.288Z,12.00
2018-05-14T03:27:23.472Z,11.90
2018-05-14T03:29:51.732Z,11.90
2018-05-14T03:32:19.902Z,12.00
2018-05-14T03:34:48.051Z,11.90
2018-05-14T03:37:16.246Z,11.80
2018-05-14T03:39:45.199Z,12.20
2018-05-14T03:42:13.384Z,12.20
2018-05-14T03:44:41.531Z,12.50
2018-05-14T03:47:10.461Z,12.80
2018-05-14T03:49:38.763Z,12.80
2018-05-14T03:52:06.941Z,13.10
2018-05-14T03:54:35.094Z,13.00
2018-05-14T03:57:03.275Z,12.40
2018-05-14T03:59:43.239Z,12.30
2018-05-14T04:02:23.482Z,12.50
2018-05-14T04:05:03.476Z,12.60
2018-05-14T04:07:32.427Z,12.60
2018-05-14T04:10:01.376Z,12.20
2018-05-14T04:12:29.574Z,12.20
2018-05-14T04:14:57.745Z,12.00
2018-05-14T04:17:25.918Z,11.80
2018-05-14T04:19:54.103Z,11.90
2018-05-14T04:22:22.301Z,11.90
2018-05-14T04:24:50.460Z,11.90
2018-05-14T04:27:18.639Z,11.90
2018-05-14T04:29:46.920Z,11.90
2018-05-14T04:32:15.100Z,11.90
2018-05-14T04:34:43.252Z,11.80
2018-05-14T04:37:11.418Z,11.80
2018-05-14T04:39:39.615Z,11.80
2018-05-14T04:42:07.783Z,11.80
2018-05-14T04:44:35.936Z,11.90
2018-05-14T04:47:04.121Z,11.80
2018-05-14T04:49:32.325Z,11.80
2018-05-14T04:52:00.519Z,11.90
2018-05-14T04:54:29.467Z,11.80
2018-05-14T04:56:57.753Z,11.70
2018-05-14T04:59:26.030Z,11.80
2018-05-14T05:01:54.211Z,11.90
2018-05-14T05:04:22.396Z,11.80
2018-05-14T05:06:50.562Z,11.80
2018-05-14T05:09:19.514Z,11.90
2018-05-14T05:11:47.692Z,11.90
2018-05-14T05:14:15.839Z,11.90
2018-05-14T05:16:44.791Z,11.90
2018-05-14T05:19:13.746Z,11.90
2018-05-14T05:21:41.931Z,11.90
2018-05-14T05:24:10.080Z,11.90
2018-05-14T05:26:38.264Z,11.90
2018-05-14T05:29:06.490Z,11.90
2018-05-14T05:31:34.642Z,12.00
2018-05-14T05:34:02.827Z,12.00
2018-05-14T05:36:30.988Z,12.00
2018-05-14T05:38:59.989Z,11.90
2018-05-14T05:41:28.149Z,11.90
2018-05-14T05:43:56.338Z,12.00
2018-05-14T05:46:24.503Z,12.00
2018-05-14T05:48:52.763Z,12.00
2018-05-14T05:51:20.922Z,12.00
2018-05-14T05:53:49.857Z,12.10
2018-05-14T05:56:17.998Z,12.10
2018-05-14T05:58:46.247Z,12.00
2018-05-14T06:01:15.188Z,12.10
2018-05-14T06:03:43.368Z,12.10
2018-05-14T06:06:11.523Z,12.20
2018-05-14T06:08:39.703Z,12.30
2018-05-14T06:11:08.355Z,12.20
2018-05-14T06:13:37.307Z,12.20
2018-05-14T06:16:05.474Z,12.20
2018-05-14T06:18:33.646Z,12.20
2018-05-14T06:21:01.817Z,12.20
2018-05-14T06:23:29.995Z,12.10
2018-05-14T06:25:58.151Z,12.20
2018-05-14T06:28:26.326Z,12.20
2018-05-14T06:30:54.496Z,12.20
2018-05-14T06:33:22.663Z,12.20
2018-05-14T06:35:50.832Z,12.20
2018-05-14T06:38:20.240Z,12.10
2018-05-14T06:40:48.398Z,12.20
2018-05-14T06:43:16.648Z,12.10
2018-05-14T06:45:44.743Z,12.10
2018-05-14T06:48:14.264Z,12.20
2018-05-14T06:50:42.420Z,12.10
2018-05-14T06:53:10.595Z,12.10
2018-05-14T06:55:38.776Z,12.00
2018-05-14T06:58:07.780Z,12.10
2018-05-14T07:00:36.291Z,12.10
2018-05-14T07:03:04.481Z,12.10
2018-05-14T07:05:32.636Z,12.10
2018-05-14T07:08:01.603Z,12.20
2018-05-14T07:10:29.751Z,12.20
2018-05-14T07:12:58.806Z,12.30
2018-05-14T07:15:26.958Z,12.30
2018-05-14T07:17:55.184Z,12.20
2018-05-14T07:20:24.102Z,12.40
2018-05-14T07:22:52.301Z,12.30
2018-05-14T07:25:20.451Z,12.40
2018-05-14T07:27:49.448Z,12.50
2018-05-14T07:30:17.636Z,12.40
2018-05-14T07:32:45.783Z,12.40
2018-05-14T07:35:13.961Z,12.40
2018-05-14T07:37:42.184Z,12.30
2018-05-14T07:40:10.355Z,12.40
2018-05-14T07:42:38.502Z,12.50
2018-05-14T07:45:06.699Z,12.50
2018-05-14T07:47:35.653Z,12.70
2018-05-14T07:50:03.823Z,12.70
2018-05-14T07:52:31.970Z,12.60
2018-05-14T07:55:01.009Z,12.60
2018-05-14T07:57:29.222Z,12.60
2018-05-14T07:59:57.402Z,12.70
2018-05-14T08:02:25.562Z,12.70
2018-05-14T08:04:53.731Z,12.70
2018-05-14T08:07:22.684Z,12.70
2018-05-14T08:09:50.855Z,12.70
2018-05-14T08:12:19.015Z,12.60
2018-05-14T08:14:48.016Z,12.70
2018-05-14T08:17:17.021Z,12.50
2018-05-14T08:19:45.206Z,12.50
2018-05-14T08:22:13.361Z,12.60
2018-05-14T08:24:41.534Z,12.60
2018-05-14T08:27:09.866Z,12.70
2018-05-14T08:29:38.143Z,12.70
2018-05-14T08:32:06.327Z,12.70
2018-05-14T08:34:35.435Z,12.70
2018-05-14T08:37:04.387Z,12.90
2018-05-14T08:39:32.598Z,12.80
2018-05-14T08:42:00.753Z,12.80
2018-05-14T08:44:28.931Z,12.90
2018-05-14T08:46:57.975Z,12.80
2018-05-14T08:49:26.165Z,12.80
2018-05-14T08:51:54.336Z,12.90
2018-05-14T08:54:22.630Z,12.90
2018-05-14T08:56:50.682Z,12.90
2018-05-14T08:59:18.860Z,12.90
2018-05-14T09:01:47.006Z,12.90
2018-05-14T09:04:15.960Z,12.80
2018-05-14T09:06:44.234Z,12.80
2018-05-14T09:09:12.903Z,12.90
2018-05-14T09:11:41.099Z,12.80
2018-05-14T09:14:09.245Z,12.80
2018-05-14T09:16:37.514Z,12.90
2018-05-14T09:19:05.668Z,13.00
2018-05-14T09:21:33.867Z,13.00
2018-05-14T09:24:02.015Z,12.90
2018-05-14T09:26:30.266Z,13.00
2018-05-14T09:28:58.423Z,12.90
2018-05-14T09:31:26.611Z,12.90
2018-05-14T09:33:54.764Z,12.90
2018-05-14T09:36:22.935Z,12.90
2018-05-14T09:38:51.092Z,12.90
2018-05-14T09:41:19.260Z,13.00
2018-05-14T09:43:47.428Z,12.90
2018-05-14T09:46:15.604Z,12.80
2018-05-14T09:48:43.760Z,12.90
2018-05-14T09:51:11.952Z,12.90
2018-05-14T09:53:40.095Z,12.80
2018-05-14T09:56:09.031Z,12.90
2018-05-14T09:58:37.221Z,12.80
2018-05-14T10:01:05.396Z,12.90
2018-05-14T10:03:33.641Z,13.00
2018-05-14T10:06:01.884Z,12.90
2018-05-14T10:08:30.799Z,13.00
2018-05-14T10:10:58.973Z,12.90
2018-05-14T10:13:27.131Z,13.10
2018-05-14T10:15:55.340Z,13.10
2018-05-14T10:18:23.486Z,13.10
2018-05-14T10:20:51.655Z,13.10
2018-05-14T10:23:20.567Z,13.10
2018-05-14T10:25:48.827Z,13.10
2018-05-14T10:28:16.976Z,13.10
2018-05-14T10:30:45.144Z,13.20
2018-05-14T10:33:13.316Z,13.20
2018-05-14T10:35:42.393Z,13.20
2018-05-14T10:38:10.547Z,13.20
2018-05-14T10:40:38.839Z,13.30
2018-05-14T10:43:07.615Z,13.30
2018-05-14T10:45:36.624Z,13.30
2018-05-14T10:48:04.903Z,13.20
2018-05-14T10:50:33.075Z,13.40
2018-05-14T10:53:01.271Z,13.40
2018-05-14T10:55:30.344Z,13.50
2018-05-14T10:57:58.490Z,13.50
2018-05-14T11:00:26.660Z,13.50
2018-05-14T11:02:54.853Z,13.50
2018-05-14T11:05:23.822Z,13.80
2018-05-14T11:07:52.008Z,13.80
2018-05-14T11:10:20.176Z,13.80
2018-05-14T11:12:48.352Z,13.70
2018-05-14T11:15:16.559Z,13.70
2018-05-14T11:17:44.739Z,13.60
2018-05-14T11:20:12.901Z,13.60
2018-05-14T11:22:41.184Z,13.60
2018-05-14T11:25:09.332Z,13.60
2018-05-14T11:27:37.596Z,13.50
2018-05-14T11:30:05.677Z,13.50
2018-05-14T11:32:33.862Z,13.60
2018-05-14T11:35:02.827Z,13.80
2018-05-14T11:37:31.010Z,13.70
2018-05-14T11:39:59.164Z,13.90
2018-05-14T11:42:28.215Z,13.80
2018-05-14T11:44:56.358Z,13.70
2018-05-14T11:47:24.543Z,13.80
2018-05-14T11:49:52.690Z,13.70
2018-05-14T11:52:20.885Z,13.60
2018-05-14T11:54:49.044Z,13.70
2018-05-14T11:57:17.244Z,13.70
2018-05-14T11:59:45.394Z,13.80
2018-05-14T12:02:13.591Z,14.00
2018-05-14T12:04:41.781Z,14.00
2018-05-14T12:07:10.007Z,14.00
2018-05-14T12:09:38.136Z,14.10
2018-05-14T12:12:06.324Z,14.20
2018-05-14T12:14:34.458Z,14.10
2018-05-14T12:17:02.652Z,14.00
2018-05-14T12:19:30.829Z,14.00
2018-05-14T12:21:59.016Z,14.00
2018-05-14T12:24:27.173Z,13.80
2018-05-14T12:26:55.339Z,13.80
2018-05-14T12:29:23.497Z,13.80
2018-05-14T12:31:51.681Z,13.90
2018-05-14T12:34:19.848Z,13.90
2018-05-14T12:36:48.018Z,13.90
2018-05-14T12:39:16.174Z,13.90
2018-05-14T12:41:44.351Z,13.80
2018-05-14T12:44:12.536Z,13.90
2018-05-14T12:46:40.709Z,14.00
2018-05-14T12:49:08.864Z,13.90
2018-05-14T12:51:37.833Z,13.90
2018-05-14T12:54:06.000Z,13.90
2018-05-14T12:56:34.204Z,14.00
2018-05-14T12:59:03.135Z,14.10
2018-05-14T13:01:31.304Z,14.00
2018-05-14T13:03:59.485Z,14.30
2018-05-14T13:06:27.652Z,14.40
2018-05-14T13:08:55.850Z,14.40
2018-05-14T13:11:24.042Z,14.40
2018-05-14T13:13:52.218Z,14.30
2018-05-14T13:16:21.156Z,14.30
2018-05-14T13:18:49.344Z,14.30
2018-05-14T13:21:17.503Z,14.40
2018-05-14T13:23:45.689Z,14.50
2018-05-14T13:26:13.890Z,14.50
2018-05-14T13:28:42.030Z,14.40
2018-05-14T13:31:10.199Z,14.30
2018-05-14T13:33:38.388Z,14.30
2018-05-14T13:36:06.548Z,14.40
2018-05-14T13:38:34.745Z,14.40
2018-05-14T13:41:02.924Z,14.50
2018-05-14T13:43:31.922Z,14.40
2018-05-14T13:46:00.100Z,14.40
2018-05-14T13:48:28.281Z,14.40
2018-05-14T13:50:56.507Z,14.40
2018-05-14T13:53:25.532Z,14.70
2018-05-14T13:55:53.716Z,14.70
2018-05-14T13:58:21.904Z,14.70
2018-05-14T14:00:50.076Z,14.60
2018-05-14T14:03:18.263Z,14.80
2018-05-14T14:05:46.432Z,14.80
2018-05-14T14:08:14.615Z,14.70
2018-05-14T14:10:43.545Z,14.60
2018-05-14T14:13:12.663Z,14.60
2018-05-14T14:15:40.843Z,14.60
2018-05-14T14:18:10.647Z,14.70
2018-05-14T14:20:38.813Z,14.70
2018-05-14T14:23:07.062Z,14.50
2018-05-14T14:25:35.228Z,14.50
2018-05-14T14:28:04.172Z,14.50
2018-05-14T14:30:32.332Z,14.40
2018-05-14T14:33:00.520Z,14.40
2018-05-14T14:35:28.680Z,14.40
2018-05-14T14:37:56.862Z,14.40
2018-05-14T14:40:25.025Z,14.40
2018-05-14T14:42:53.238Z,14.50
2018-05-14T14:45:21.404Z,14.40
2018-05-14T14:47:49.588Z,14.40
2018-05-14T14:50:17.751Z,14.40
2018-05-14T14:52:46.731Z,14.20
2018-05-14T14:55:14.878Z,14.20
2018-05-14T14:57:43.046Z,14.20
2018-05-14T15:00:11.223Z,14.10
2018-05-14T15:02:39.427Z,14.10
2018-05-14T15:05:07.705Z,14.10
2018-05-14T15:07:35.859Z,14.00
2018-05-14T15:10:04.034Z,14.00
2018-05-14T15:12:33.020Z,14.10
2018-05-14T15:15:01.231Z,14.10
2018-05-14T15:17:29.461Z,14.00
2018-05-14T15:19:57.927Z,14.00
2018-05-14T15:22:26.985Z,14.00
2018-05-14T15:24:55.268Z,14.00
2018-05-14T15:27:23.468Z,14.00
2018-05-14T15:29:53.706Z,14.00
2018-05-14T15:32:24.144Z,13.80
2018-05-14T15:34:53.168Z,13.80
2018-05-14T15:37:22.332Z,14.00
2018-05-14T15:39:50.524Z,13.90
2018-05-14T15:42:18.841Z,14.00
2018-05-14T15:44:47.121Z,14.00
2018-05-14T15:47:15.312Z,14.00
2018-05-14T15:49:43.506Z,14.00
2018-05-14T15:52:12.706Z,14.50
2018-05-14T15:54:40.891Z,14.40
2018-05-14T15:57:09.058Z,14.30
2018-05-14T15:59:37.336Z,14.20
2018-05-14T16:02:06.149Z,14.10
2018-05-14T16:04:35.157Z,14.00
2018-05-14T16:07:04.167Z,13.90
2018-05-14T16:09:33.110Z,14.00
2018-05-14T16:12:01.695Z,13.90
2018-05-14T16:14:30.263Z,14.10
2018-05-14T16:16:59.192Z,14.10
2018-05-14T16:19:27.489Z,14.10
2018-05-14T16:21:56.519Z,14.30
2018-05-14T16:24:24.750Z,14.30
2018-05-14T16:26:52.903Z,14.30
2018-05-14T16:29:21.094Z,14.30
2018-05-14T16:31:50.036Z,14.40
2018-05-14T16:34:18.239Z,14.30
2018-05-14T16:36:47.919Z,14.40
2018-05-14T16:39:16.114Z,14.40
2018-05-14T16:41:44.274Z,14.30
2018-05-14T16:44:12.468Z,14.20
2018-05-14T16:46:40.637Z,14.30
2018-05-14T16:49:08.824Z,14.20
2018-05-14T16:51:36.995Z,14.20
2018-05-14T16:54:05.218Z,14.20
2018-05-14T16:56:34.170Z,14.10
2018-05-14T16:59:02.335Z,14.10
2018-05-14T17:01:30.739Z,14.20
2018-05-14T17:03:59.693Z,14.50
2018-05-14T17:06:27.918Z,14.50
2018-05-14T17:08:56.851Z,14.20
2018-05-14T17:11:25.046Z,14.10
2018-05-14T17:13:53.231Z,14.10
2018-05-14T17:16:21.415Z,14.00
2018-05-14T17:18:49.608Z,13.90
2018-05-14T17:21:18.674Z,14.00
2018-05-14T17:23:46.864Z,14.00
2018-05-14T17:26:15.050Z,14.00
2018-05-14T17:28:44.014Z,13.90
2018-05-14T17:31:12.421Z,13.90
2018-05-14T17:33:41.377Z,13.90
2018-05-14T17:36:09.643Z,13.90
2018-05-14T17:38:38.533Z,13.90
2018-05-14T17:41:07.541Z,13.90
2018-05-14T17:43:35.699Z,13.90
2018-05-14T17:46:03.895Z,13.90
2018-05-14T17:48:32.072Z,13.80
2018-05-14T17:51:00.256Z,13.80
2018-05-14T17:53:29.673Z,13.80
2018-05-14T17:55:57.922Z,13.80
2018-05-14T17:58:26.090Z,13.70
2018-05-14T18:00:55.185Z,13.70
2018-05-14T18:03:23.343Z,13.70
2018-05-14T18:05:51.518Z,13.70
2018-05-14T18:08:19.682Z,13.70
2018-05-14T18:10:48.787Z,13.60
2018-05-14T18:13:16.938Z,13.60
2018-05-14T18:15:45.884Z,13.70
2018-05-14T18:18:14.070Z,13.70
2018-05-14T18:20:43.230Z,13.80
2018-05-14T18:23:17.039Z,14.20
2018-05-14T18:25:51.299Z,14.00
2018-05-14T18:28:21.084Z,14.00
2018-05-14T18:30:51.100Z,13.80
2018-05-14T18:33:21.313Z,13.90
2018-05-14T18:35:49.507Z,13.80
2018-05-14T18:38:18.442Z,13.80
2018-05-14T18:40:47.890Z,13.80
2018-05-14T18:43:16.864Z,13.70
2018-05-14T18:45:45.072Z,13.70
2018-05-14T18:48:14.018Z,13.70
2018-05-14T18:50:43.311Z,13.70
2018-05-14T18:53:11.521Z,13.70
2018-05-14T18:55:39.693Z,13.70
2018-05-14T18:58:07.911Z,13.70
2018-05-14T19:00:36.187Z,13.80
2018-05-14T19:03:04.474Z,13.80
2018-05-14T19:05:32.877Z,13.70
2018-05-14T19:08:01.081Z,13.60
2018-05-14T19:10:34.968Z,13.50
2018-05-14T19:13:03.167Z,13.40
2018-05-14T19:15:37.992Z,13.20
2018-05-14T19:18:06.199Z,13.20
2018-05-14T19:20:34.490Z,13.20
2018-05-14T19:23:08.344Z,13.10
2018-05-14T19:25:36.533Z,13.00
2018-05-14T19:28:10.431Z,13.00
2018-05-14T19:30:39.304Z,13.00
2018-05-14T19:33:07.548Z,13.00
2018-05-14T19:35:41.383Z,12.90
2018-05-14T19:38:09.598Z,13.00
2018-05-14T19:40:43.579Z,13.00
2018-05-14T19:43:11.774Z,13.00
2018-05-14T19:45:40.720Z,13.00
2018-05-14T19:48:08.923Z,13.00
2018-05-14T19:50:37.202Z,12.90
2018-05-14T19:53:06.075Z,12.90
2018-05-14T19:55:34.269Z,12.90
2018-05-14T19:58:02.482Z,13.00
2018-05-14T20:00:31.416Z,12.90
2018-05-14T20:02:59.635Z,12.90
2018-05-14T20:05:28.593Z,13.00
2018-05-14T20:07:56.811Z,12.90
2018-05-14T20:10:25.099Z,13.00
2018-05-14T20:12:53.380Z,13.00
2018-05-14T20:15:21.511Z,13.00
2018-05-14T20:17:49.727Z,12.90
2018-05-14T20:20:18.011Z,12.90
2018-05-14T20:22:46.196Z,12.90
2018-05-14T20:25:14.377Z,12.90
2018-05-14T20:27:42.588Z,12.90
2018-05-14T20:30:10.891Z,12.90
2018-05-14T20:32:39.838Z,12.70
2018-05-14T20:35:08.023Z,12.80
2018-05-14T20:37:36.224Z,12.80
2018-05-14T20:40:05.378Z,12.80
2018-05-14T20:42:33.581Z,12.80
2018-05-14T20:45:01.753Z,12.80
2018-05-14T20:47:29.949Z,12.70
2018-05-14T20:49:59.023Z,12.60
2018-05-14T20:52:28.128Z,12.60
2018-05-14T20:54:57.098Z,12.60
2018-05-14T20:57:25.279Z,12.50
2018-05-14T20:59:53.472Z,12.50
2018-05-14T21:02:22.412Z,12.50
2018-05-14T21:04:50.603Z,12.50
2018-05-14T21:07:18.759Z,12.50
2018-05-14T21:09:46.931Z,12.40
2018-05-14T21:12:15.100Z,12.30
2018-05-14T21:14:43.347Z,12.20
2018-05-14T21:17:11.462Z,12.20
2018-05-14T21:19:39.655Z,12.20
2018-05-14T21:22:07.809Z,12.30
2018-05-14T21:24:36.008Z,12.30
2018-05-14T21:27:04.184Z,12.30
2018-05-14T21:29:32.355Z,12.10
2018-05-14T21:32:00.527Z,12.20
2018-05-14T21:34:28.695Z,12.20
2018-05-14T21:36:56.851Z,12.20
2018-05-14T21:39:25.122Z,12.30
2018-05-14T21:41:54.018Z,12.10
2018-05-14T21:44:22.215Z,12.10
2018-05-14T21:46:50.376Z,12.20
2018-05-14T21:49:18.813Z,12.20
2018-05-14T21:51:46.963Z,12.20
2018-05-14T21:54:15.160Z,12.20
2018-05-14T21:56:44.102Z,12.30
2018-05-14T21:59:12.300Z,12.30
2018-05-14T22:01:40.458Z,12.30
2018-05-14T22:04:08.648Z,12.40
2018-05-14T22:06:36.804Z,12.40
2018-05-14T22:09:05.912Z,12.40
2018-05-14T22:11:35.600Z,12.30
2018-05-14T22:14:03.780Z,12.30
2018-05-14T22:16:31.939Z,12.40
2018-05-14T22:19:00.179Z,12.30
2018-05-14T22:21:29.112Z,12.50
2018-05-14T22:23:57.292Z,12.50
2018-05-14T22:26:25.593Z,12.50
2018-05-14T22:28:53.740Z,12.50
2018-05-14T22:31:21.948Z,12.50
2018-05-14T22:33:50.103Z,12.40
2018-05-14T22:36:18.270Z,12.50
2018-05-14T22:38:46.447Z,12.50
2018-05-14T22:41:14.610Z,12.50
2018-05-14T22:43:42.771Z,12.40
2018-05-14T22:46:10.966Z,12.40
2018-05-14T22:48:39.939Z,12.40
2018-05-14T22:51:08.143Z,12.40
2018-05-14T22:53:36.299Z,12.40
2018-05-14T22:56:04.471Z,12.30
2018-05-14T22:58:32.692Z,12.30
2018-05-14T23:01:00.880Z,12.30
2018-05-14T23:03:29.042Z,12.40
2018-05-14T23:05:57.220Z,12.40
2018-05-14T23:08:25.380Z,12.40
2018-05-14T23:10:53.559Z,12.40
2018-05-14T23:13:21.723Z,12.40
2018-05-14T23:15:49.907Z,12.50
2018-05-14T23:18:18.943Z,12.50
2018-05-14T23:20:47.133Z,12.50
2018-05-14T23:23:15.294Z,12.40
2018-05-14T23:25:43.486Z,12.50
2018-05-14T23:28:11.707Z,12.50
2018-05-14T23:30:39.884Z,12.50
2018-05-14T23:33:08.040Z,12.50
2018-05-14T23:35:36.212Z,12.50
2018-05-14T23:38:04.375Z,12.50
2018-05-14T23:40:32.562Z,12.50
2018-05-14T23:43:00.711Z,12.50
2018-05-14T23:45:28.896Z,12.50
2018-05-14T23:47:57.986Z,12.40
2018-05-14T23:50:26.163Z,12.40
2018-05-14T23:52:54.332Z,12.50
2018-05-14T23:55:22.518Z,12.50
2018-05-14T23:57:51.470Z,12.50
